Time;durP1;ratioP1;P1;durP2;ratioP2;P2;SDS_P1;SDS_P2;PMS_P1;PMS_P2;Temp;Humidity;BMP_temperature;BMP_pressure;BME280_temperature;BME280_humidity;BME280_pressure;Samples;Min_cycle;Max_cycle;Signal;HPM_P1;HPM_P2
2023/06/01 00:02:20;;;;;;;;;19.25;18.25;;;;;;;;5058839;28;8812;-77
2023/06/01 00:04:48;;;;;;;;;14.25;14.25;;;;;;;;5059412;28;8886;-77
2023/06/01 00:07:15;;;;;;;;;20.50;19.00;;;;;;;;5051882;28;8836;-78
2023/06/01 00:09:43;;;;;;;;;17.75;15.25;;;;;;;;5051271;28;8932;-79
2023/06/01 00:12:10;;;;;;;;;16.75;16.75;;;;;;;;5055134;28;8868;-78
2023/06/01 00:14:38;;;;;;;;;16.25;16.00;;;;;;;;5057900;28;8859;-78
2023/06/01 00:17:07;;;;;;;;;18.25;18.25;;;;;;;;5061354;28;8845;-77
2023/06/01 00:19:35;;;;;;;;;23.50;20.25;;;;;;;;5052374;28;8987;-78
2023/06/01 00:22:03;;;;;;;;;23.50;19.00;;;;;;;;5049850;28;8932;-77
2023/06/01 00:24:30;;;;;;;;;22.50;22.00;;;;;;;;5048948;28;9297;-78
2023/06/01 00:26:57;;;;;;;;;22.75;20.50;;;;;;;;5049342;28;8971;-77
2023/06/01 00:29:24;;;;;;;;;23.50;23.50;;;;;;;;5051690;28;8874;-78
2023/06/01 00:31:52;;;;;;;;;21.75;21.50;;;;;;;;5050773;28;8792;-79
2023/06/01 00:34:20;;;;;;;;;23.00;20.50;;;;;;;;5059181;28;8878;-78
2023/06/01 00:36:47;;;;;;;;;23.75;23.25;;;;;;;;5049122;28;9625;-79
2023/06/01 00:39:15;;;;;;;;;25.75;22.75;;;;;;;;5049236;28;8856;-79
2023/06/01 00:41:42;;;;;;;;;22.50;17.75;;;;;;;;5043295;28;8965;-78
2023/06/01 00:44:09;;;;;;;;;22.75;21.25;;;;;;;;5048444;28;8842;-78
2023/06/01 00:46:38;;;;;;;;;26.25;25.50;;;;;;;;5052660;28;8843;-78
2023/06/01 00:49:05;;;;;;;;;32.00;27.75;;;;;;;;5050958;28;8862;-77
2023/06/01 00:51:35;;;;;;;;;29.50;26.75;;;;;;;;5061469;28;8841;-77
2023/06/01 00:54:05;;;;;;;;;26.00;25.75;;;;;;;;5055732;28;8852;-77
2023/06/01 00:56:36;;;;;;;;;27.00;24.50;;;;;;;;5052431;28;8852;-77
2023/06/01 00:59:06;;;;;;;;;34.50;29.00;;;;;;;;5052914;28;8830;-78
2023/06/01 01:01:36;;;;;;;;;24.75;24.75;;;;;;;;5058202;28;8806;-78
2023/06/01 01:04:04;;;;;;;;;25.00;24.00;;;;;;;;5054289;28;8832;-77
2023/06/01 01:06:48;;;;;;;;;26.25;25.25;;;;;;;;5055354;28;8918;-78
2023/06/01 01:09:31;;;;;;;;;27.50;26.50;;;;;;;;5053847;28;8826;-78
2023/06/01 01:12:01;;;;;;;;;29.00;27.00;;;;;;;;5055765;28;8929;-76
2023/06/01 01:14:35;;;;;;;;;28.75;26.75;;;;;;;;5045630;28;8856;-77
2023/06/01 01:17:07;;;;;;;;;26.75;25.75;;;;;;;;5065557;28;8834;-76
2023/06/01 01:19:54;;;;;;;;;29.33;27.67;;;;;;;;5057085;28;8926;-76
2023/06/01 01:22:31;;;;;;;;;30.50;30.00;;;;;;;;5039868;28;8851;-77
2023/06/01 01:25:20;;;;;;;;;32.50;28.25;;;;;;;;5064368;28;8916;-77
2023/06/01 01:28:01;;;;;;;;;30.25;27.50;;;;;;;;5061302;28;8962;-77
2023/06/01 01:30:30;;;;;;;;;27.75;26.50;;;;;;;;5063133;28;9569;-77
2023/06/01 01:32:57;;;;;;;;;28.25;26.75;;;;;;;;5047991;28;8855;-77
2023/06/01 01:35:25;;;;;;;;;30.50;28.50;;;;;;;;5049748;28;8863;-77
2023/06/01 01:37:52;;;;;;;;;27.00;25.75;;;;;;;;5049152;28;8966;-77
2023/06/01 01:40:20;;;;;;;;;29.25;28.50;;;;;;;;5050469;28;8825;-76
2023/06/01 01:42:48;;;;;;;;;31.25;27.75;;;;;;;;5050026;28;8846;-77
2023/06/01 01:45:15;;;;;;;;;27.50;26.25;;;;;;;;5051480;28;8967;-77
2023/06/01 01:47:52;;;;;;;;;32.50;29.50;;;;;;;;5063234;28;8846;-77
2023/06/01 01:50:22;;;;;;;;;35.00;31.00;;;;;;;;5057543;28;8860;-78
2023/06/01 01:52:50;;;;;;;;;25.00;24.25;;;;;;;;5061859;28;9149;-77
2023/06/01 01:55:18;;;;;;;;;34.50;30.00;;;;;;;;5044786;28;8860;-78
2023/06/01 01:57:46;;;;;;;;;38.67;33.00;;;;;;;;5052388;28;8890;-78
2023/06/01 02:00:14;;;;;;;;;31.67;30.00;;;;;;;;5048755;28;9111;-77
2023/06/01 02:02:41;;;;;;;;;32.00;29.00;;;;;;;;5046491;28;9029;-78
2023/06/01 02:05:10;;;;;;;;;32.33;31.33;;;;;;;;5050890;28;8916;-77
2023/06/01 02:07:38;;;;;;;;;34.33;30.67;;;;;;;;5049292;28;8942;-78
2023/06/01 02:10:06;;;;;;;;;33.33;30.33;;;;;;;;5058507;28;8952;-76
2023/06/01 02:12:36;;;;;;;;;29.33;29.33;;;;;;;;5050740;28;9023;-78
2023/06/01 02:15:07;;;;;;;;;36.67;32.00;;;;;;;;5052690;28;9121;-77
2023/06/01 02:17:34;;;;;;;;;35.00;30.67;;;;;;;;5053508;28;9140;-78
2023/06/01 02:20:02;;;;;;;;;33.67;30.67;;;;;;;;5054207;28;8943;-77
2023/06/01 02:22:31;;;;;;;;;30.00;29.75;;;;;;;;5046299;28;9083;-78
2023/06/01 02:25:04;;;;;;;;;32.67;31.67;;;;;;;;5041137;28;8925;-78
2023/06/01 02:27:34;;;;;;;;;35.67;31.67;;;;;;;;5049796;28;9786;-78
2023/06/01 02:30:06;;;;;;;;;34.00;31.00;;;;;;;;5043988;28;9156;-78
2023/06/01 02:32:37;;;;;;;;;44.25;34.25;;;;;;;;5028454;28;9243;-78
2023/06/01 02:35:06;;;;;;;;;39.33;33.67;;;;;;;;5028568;28;9479;-77
2023/06/01 02:37:34;;;;;;;;;36.00;33.00;;;;;;;;5028263;28;9387;-76
2023/06/01 02:40:01;;;;;;;;;39.25;32.75;;;;;;;;5017714;28;9408;-76
2023/06/01 02:42:29;;;;;;;;;32.75;30.75;;;;;;;;5027548;28;9624;-77
2023/06/01 02:44:56;;;;;;;;;38.25;32.75;;;;;;;;5028668;28;9509;-77
2023/06/01 02:47:23;;;;;;;;;33.25;32.00;;;;;;;;5028878;28;9529;-77
2023/06/01 02:49:50;;;;;;;;;37.00;31.50;;;;;;;;5028691;28;9643;-77
2023/06/01 02:52:17;;;;;;;;;40.00;33.50;;;;;;;;5029446;28;9601;-77
2023/06/01 02:54:46;;;;;;;;;43.00;35.75;;;;;;;;5035430;28;9551;-77
2023/06/01 02:57:13;;;;;;;;;40.75;35.00;;;;;;;;5034710;28;9725;-76
2023/06/01 02:59:40;;;;;;;;;45.25;38.50;;;;;;;;5037198;28;9630;-76
2023/06/01 03:02:08;;;;;;;;;43.50;36.75;;;;;;;;5048183;28;9856;-77
2023/06/01 03:04:35;;;;;;;;;45.25;38.50;;;;;;;;5060197;28;9918;-77
2023/06/01 03:07:03;;;;;;;;;36.75;34.00;;;;;;;;5064422;28;9682;-77
2023/06/01 03:09:30;;;;;;;;;39.75;33.75;;;;;;;;5060098;28;9543;-77
2023/06/01 03:11:58;;;;;;;;;41.50;35.25;;;;;;;;5063652;28;9580;-78
2023/06/01 03:14:26;;;;;;;;;44.50;36.50;;;;;;;;5060285;28;9757;-77
2023/06/01 03:16:53;;;;;;;;;41.00;34.75;;;;;;;;5064798;28;9783;-76
2023/06/01 03:19:20;;;;;;;;;36.25;33.50;;;;;;;;5059367;28;9701;-77
2023/06/01 03:21:48;;;;;;;;;44.75;33.25;;;;;;;;5056136;28;9796;-76
2023/06/01 03:24:15;;;;;;;;;44.25;37.50;;;;;;;;5053898;28;9586;-76
2023/06/01 03:26:42;;;;;;;;;37.50;34.00;;;;;;;;5070862;28;9851;-77
2023/06/01 03:29:11;;;;;;;;;38.25;34.25;;;;;;;;5066528;28;9717;-76
2023/06/01 03:31:38;;;;;;;;;44.25;36.75;;;;;;;;5041297;28;9796;-77
2023/06/01 03:34:05;;;;;;;;;42.00;36.00;;;;;;;;5035874;28;9937;-76
2023/06/01 03:36:35;;;;;;;;;37.00;33.25;;;;;;;;5032364;28;9776;-77
2023/06/01 03:39:07;;;;;;;;;37.75;33.25;;;;;;;;5037018;28;9838;-77
2023/06/01 03:41:35;;;;;;;;;38.75;34.25;;;;;;;;5036900;28;9885;-77
2023/06/01 03:44:02;;;;;;;;;50.50;39.00;;;;;;;;5031901;28;9870;-77
2023/06/01 03:46:31;;;;;;;;;39.50;34.25;;;;;;;;5040911;28;10205;-76
2023/06/01 03:48:58;;;;;;;;;38.00;34.50;;;;;;;;5030759;28;9836;-78
2023/06/01 03:51:25;;;;;;;;;38.25;33.00;;;;;;;;5030708;28;9798;-77
2023/06/01 03:53:53;;;;;;;;;38.75;32.25;;;;;;;;5031310;28;10058;-77
2023/06/01 03:56:20;;;;;;;;;37.75;34.25;;;;;;;;5030717;28;9858;-77
2023/06/01 03:58:47;;;;;;;;;38.50;34.25;;;;;;;;5042065;28;10050;-76
2023/06/01 04:01:16;;;;;;;;;42.75;37.50;;;;;;;;5039068;28;9840;-78
2023/06/01 04:03:45;;;;;;;;;41.25;36.75;;;;;;;;5049431;28;9846;-78
2023/06/01 04:06:17;;;;;;;;;49.50;39.75;;;;;;;;5051263;28;10003;-78
2023/06/01 04:08:48;;;;;;;;;35.75;32.75;;;;;;;;5051036;28;10000;-78
2023/06/01 04:11:16;;;;;;;;;34.25;31.75;;;;;;;;5051008;28;9779;-77
2023/06/01 04:13:43;;;;;;;;;46.00;36.25;;;;;;;;5052730;28;9703;-84
2023/06/01 04:16:11;;;;;;;;;38.75;34.25;;;;;;;;5063237;28;9908;-79
2023/06/01 04:18:38;;;;;;;;;39.50;34.25;;;;;;;;5052184;28;10026;-80
2023/06/01 04:21:08;;;;;;;;;42.75;36.00;;;;;;;;5059923;28;9787;-81
2023/06/01 04:23:37;;;;;;;;;44.00;36.75;;;;;;;;5054558;28;9918;-78
2023/06/01 04:26:04;;;;;;;;;34.25;33.00;;;;;;;;5053206;28;9993;-81
2023/06/01 04:28:43;;;;;;;;;39.00;33.00;;;;;;;;5038002;28;10757;-78
2023/06/01 04:31:16;;;;;;;;;35.00;33.00;;;;;;;;5052597;28;10029;-77
2023/06/01 04:33:44;;;;;;;;;34.25;31.00;;;;;;;;5039914;28;9944;-77
2023/06/01 04:36:21;;;;;;;;;37.25;32.75;;;;;;;;5048744;28;10857;-78
2023/06/01 04:38:52;;;;;;;;;36.25;31.75;;;;;;;;5050184;28;9860;-77
2023/06/01 04:41:23;;;;;;;;;47.00;35.00;;;;;;;;5049572;28;9863;-77
2023/06/01 04:43:51;;;;;;;;;42.50;36.50;;;;;;;;5049351;28;9901;-78
2023/06/01 04:46:19;;;;;;;;;42.50;36.00;;;;;;;;5048871;28;9925;-75
2023/06/01 04:48:57;;;;;;;;;38.25;33.50;;;;;;;;5050085;28;9941;-77
2023/06/01 04:51:29;;;;;;;;;40.50;34.50;;;;;;;;5047253;28;9956;-77
2023/06/01 04:54:01;;;;;;;;;45.75;37.00;;;;;;;;5050318;28;9993;-77
2023/06/01 04:56:29;;;;;;;;;44.75;36.25;;;;;;;;5057752;28;9861;-79
2023/06/01 04:59:00;;;;;;;;;41.25;35.25;;;;;;;;5047189;28;9983;-78
2023/06/01 05:01:29;;;;;;;;;45.50;37.00;;;;;;;;5060217;28;10770;-78
2023/06/01 05:03:57;;;;;;;;;40.75;36.75;;;;;;;;5056835;28;9862;-77
2023/06/01 05:06:28;;;;;;;;;41.75;35.25;;;;;;;;5052429;28;9694;-78
2023/06/01 05:08:55;;;;;;;;;40.25;34.75;;;;;;;;5051716;28;9773;-78
2023/06/01 05:11:22;;;;;;;;;31.75;29.50;;;;;;;;5050253;28;9544;-77
2023/06/01 05:13:51;;;;;;;;;33.25;31.50;;;;;;;;5058018;28;9571;-77
2023/06/01 05:16:20;;;;;;;;;42.25;33.25;;;;;;;;5058270;28;9533;-79
2023/06/01 05:18:48;;;;;;;;;41.00;34.50;;;;;;;;5049103;28;9601;-78
2023/06/01 05:21:15;;;;;;;;;47.00;38.50;;;;;;;;5053157;28;9635;-78
2023/06/01 05:23:44;;;;;;;;;42.25;35.25;;;;;;;;5055913;28;9814;-78
2023/06/01 05:26:11;;;;;;;;;38.50;34.00;;;;;;;;5049187;28;9605;-77
2023/06/01 05:28:39;;;;;;;;;37.25;33.25;;;;;;;;5048214;28;9810;-77
2023/06/01 05:31:06;;;;;;;;;36.75;33.25;;;;;;;;5048902;28;9588;-78
2023/06/01 05:33:33;;;;;;;;;41.50;33.75;;;;;;;;5048927;28;9578;-78
2023/06/01 05:36:01;;;;;;;;;44.25;35.50;;;;;;;;5048238;28;9685;-76
2023/06/01 05:38:28;;;;;;;;;29.33;29.33;;;;;;;;5037031;28;9456;-77
2023/06/01 05:40:59;;;;;;;;;38.75;34.50;;;;;;;;5048891;28;10217;-76
2023/06/01 05:43:26;;;;;;;;;44.00;36.33;;;;;;;;5037150;28;9532;-76
2023/06/01 05:45:53;;;;;;;;;41.33;33.67;;;;;;;;5048569;28;9404;-76
2023/06/01 05:48:22;;;;;;;;;37.67;33.33;;;;;;;;5047818;28;10283;-77
2023/06/01 05:51:01;;;;;;;;;36.67;31.67;;;;;;;;5049446;28;9487;-77
2023/06/01 05:53:29;;;;;;;;;35.33;31.00;;;;;;;;5048231;28;9354;-78
2023/06/01 05:55:59;;;;;;;;;42.00;35.00;;;;;;;;5047896;28;9340;-77
2023/06/01 05:58:27;;;;;;;;;43.67;37.00;;;;;;;;5037507;28;9267;-77
2023/06/01 06:00:54;;;;;;;;;36.33;32.67;;;;;;;;5029413;28;9225;-77
2023/06/01 06:03:22;;;;;;;;;39.00;32.67;;;;;;;;5029130;28;9035;-76
2023/06/01 06:05:50;;;;;;;;;27.33;27.33;;;;;;;;5030097;28;9102;-76
2023/06/01 06:08:17;;;;;;;;;36.00;32.33;;;;;;;;5030002;28;9186;-76
2023/06/01 06:10:44;;;;;;;;;37.33;32.00;;;;;;;;5030727;28;9075;-76
2023/06/01 06:13:14;;;;;;;;;32.75;30.75;;;;;;;;5030108;28;9103;-76
2023/06/01 06:15:42;;;;;;;;;34.33;30.33;;;;;;;;5027046;28;9253;-77
2023/06/01 06:18:09;;;;;;;;;37.67;34.00;;;;;;;;5028128;28;8991;-77
2023/06/01 06:20:36;;;;;;;;;37.33;33.00;;;;;;;;5028116;28;9266;-77
2023/06/01 06:23:03;;;;;;;;;36.33;33.00;;;;;;;;5028954;28;9230;-76
2023/06/01 06:25:31;;;;;;;;;39.67;33.00;;;;;;;;5028895;28;9094;-76
2023/06/01 06:27:58;;;;;;;;;35.33;32.00;;;;;;;;5029111;28;9100;-77
2023/06/01 06:30:27;;;;;;;;;34.33;30.33;;;;;;;;5027227;28;8945;-76
2023/06/01 06:32:54;;;;;;;;;29.33;29.33;;;;;;;;5027412;28;9046;-76
2023/06/01 06:35:21;;;;;;;;;33.00;31.00;;;;;;;;5028137;28;8944;-76
2023/06/01 06:37:49;;;;;;;;;37.33;32.00;;;;;;;;5028284;28;9034;-76
2023/06/01 06:40:17;;;;;;;;;31.33;29.67;;;;;;;;5029009;28;9349;-76
2023/06/01 06:42:46;;;;;;;;;36.67;32.00;;;;;;;;5028334;28;8929;-76
2023/06/01 06:45:13;;;;;;;;;37.67;33.00;;;;;;;;5028785;28;9084;-76
2023/06/01 06:47:45;;;;;;;;;33.00;30.00;;;;;;;;5029860;28;9083;-76
2023/06/01 06:50:13;;;;;;;;;30.75;29.25;;;;;;;;5030745;28;9024;-76
2023/06/01 06:52:40;;;;;;;;;36.33;32.67;;;;;;;;5028396;28;8878;-76
2023/06/01 06:55:08;;;;;;;;;38.33;33.00;;;;;;;;5028583;28;9074;-77
2023/06/01 06:57:35;;;;;;;;;34.00;32.00;;;;;;;;5049063;28;9016;-77
2023/06/01 07:00:07;;;;;;;;;39.50;33.00;;;;;;;;5054152;28;8946;-76
2023/06/01 07:02:34;;;;;;;;;32.25;30.50;;;;;;;;5058466;28;8809;-77
2023/06/01 07:05:05;;;;;;;;;34.00;32.00;;;;;;;;5041155;28;8820;-77
2023/06/01 07:07:33;;;;;;;;;35.67;33.00;;;;;;;;5046928;28;8863;-76
2023/06/01 07:10:00;;;;;;;;;33.50;28.00;;;;;;;;5047563;28;9696;-77
2023/06/01 07:12:27;;;;;;;;;39.50;35.50;;;;;;;;5045989;28;9002;-77
2023/06/01 07:14:54;;;;;;;;;35.25;32.50;;;;;;;;5047367;28;8866;-77
2023/06/01 07:17:22;;;;;;;;;35.75;32.00;;;;;;;;5047017;28;8852;-76
2023/06/01 07:19:49;;;;;;;;;37.75;33.00;;;;;;;;5039421;28;8917;-77
2023/06/01 07:22:20;;;;;;;;;35.75;30.75;;;;;;;;5049016;28;8963;-76
2023/06/01 07:24:47;;;;;;;;;36.25;33.00;;;;;;;;5033926;28;8858;-76
2023/06/01 07:27:14;;;;;;;;;42.50;32.50;;;;;;;;5046827;28;8979;-77
2023/06/01 07:29:44;;;;;;;;;35.25;31.75;;;;;;;;5054836;28;8856;-76
2023/06/01 07:32:11;;;;;;;;;29.50;29.00;;;;;;;;5051066;28;8785;-76
2023/06/01 07:34:38;;;;;;;;;38.50;32.50;;;;;;;;5048190;28;9688;-77
2023/06/01 07:37:07;;;;;;;;;35.25;27.50;;;;;;;;5048340;28;8860;-77
2023/06/01 07:39:36;;;;;;;;;30.50;29.50;;;;;;;;5047753;28;8988;-77
2023/06/01 07:42:03;;;;;;;;;30.25;30.00;;;;;;;;5038173;28;8847;-77
2023/06/01 07:44:30;;;;;;;;;38.75;31.50;;;;;;;;5048037;28;8814;-77
2023/06/01 07:46:57;;;;;;;;;34.00;30.00;;;;;;;;5047993;28;8885;-78
2023/06/01 07:49:25;;;;;;;;;30.75;30.00;;;;;;;;5055307;28;8976;-76
2023/06/01 07:51:53;;;;;;;;;31.50;29.50;;;;;;;;5047230;28;8966;-76
2023/06/01 07:54:20;;;;;;;;;32.67;29.33;;;;;;;;5053153;28;10180;-76
2023/06/01 07:56:49;;;;;;;;;31.00;28.50;;;;;;;;5047358;28;8848;-77
2023/06/01 07:59:17;;;;;;;;;23.75;23.25;;;;;;;;5053027;28;8868;-76
2023/06/01 08:01:44;;;;;;;;;34.75;30.75;;;;;;;;5051542;28;8788;-75
2023/06/01 08:04:11;;;;;;;;;27.00;25.00;;;;;;;;5042168;28;8844;-77
2023/06/01 08:06:41;;;;;;;;;33.50;29.75;;;;;;;;5046742;28;8864;-77
2023/06/01 08:09:09;;;;;;;;;32.00;30.00;;;;;;;;5052538;28;9750;-77
2023/06/01 08:11:37;;;;;;;;;28.25;27.25;;;;;;;;5058319;28;8907;-77
2023/06/01 08:14:07;;;;;;;;;31.25;28.75;;;;;;;;5056433;28;8840;-77
2023/06/01 08:16:34;;;;;;;;;29.00;28.25;;;;;;;;5055910;28;8844;-77
2023/06/01 08:19:03;;;;;;;;;25.25;22.00;;;;;;;;5050155;28;8949;-76
2023/06/01 08:21:30;;;;;;;;;31.00;29.00;;;;;;;;5050350;28;8866;-76
2023/06/01 08:23:57;;;;;;;;;27.50;24.50;;;;;;;;5050815;28;9010;-76
2023/06/01 08:26:26;;;;;;;;;27.50;27.50;;;;;;;;5051483;28;8828;-76
2023/06/01 08:28:53;;;;;;;;;27.25;27.00;;;;;;;;5051778;28;8840;-75
2023/06/01 08:31:23;;;;;;;;;31.25;28.50;;;;;;;;5044678;28;8935;-76
2023/06/01 08:33:51;;;;;;;;;27.50;24.00;;;;;;;;5051508;28;8867;-75
2023/06/01 08:36:19;;;;;;;;;23.25;22.75;;;;;;;;5053731;28;8830;-76
2023/06/01 08:38:46;;;;;;;;;28.50;27.75;;;;;;;;5062576;28;8866;-76
2023/06/01 08:41:27;;;;;;;;;27.75;24.25;;;;;;;;5066377;28;8858;-76
2023/06/01 08:44:03;;;;;;;;;23.75;21.00;;;;;;;;5047902;28;8930;-76
2023/06/01 08:46:35;;;;;;;;;26.50;24.25;;;;;;;;5051888;28;8864;-76
2023/06/01 08:49:03;;;;;;;;;27.50;26.00;;;;;;;;5065841;28;8860;-76
2023/06/01 08:51:36;;;;;;;;;26.50;24.50;;;;;;;;5061334;28;8824;-76
2023/06/01 08:54:05;;;;;;;;;22.20;18.20;;;;;;;;5062770;28;9636;-77
2023/06/01 08:56:35;;;;;;;;;26.80;25.60;;;;;;;;5059766;28;8818;-76
2023/06/01 08:59:03;;;;;;;;;29.20;26.20;;;;;;;;5063355;28;8872;-76
2023/06/01 09:01:32;;;;;;;;;27.80;26.20;;;;;;;;5062763;28;9761;-77
2023/06/01 09:03:59;;;;;;;;;29.20;27.60;;;;;;;;5062747;28;8875;-76
2023/06/01 09:06:27;;;;;;;;;23.40;21.00;;;;;;;;5063567;28;8861;-77
2023/06/01 09:08:54;;;;;;;;;20.40;20.40;;;;;;;;5058553;28;8957;-77
2023/06/01 09:11:21;;;;;;;;;20.80;20.80;;;;;;;;5049230;28;8863;-77
2023/06/01 09:13:49;;;;;;;;;26.60;25.00;;;;;;;;5049188;28;8844;-78
2023/06/01 09:16:16;;;;;;;;;21.20;17.80;;;;;;;;5059273;28;8930;-77
2023/06/01 09:18:54;;;;;;;;;21.60;18.20;;;;;;;;5049385;28;9257;-77
2023/06/01 09:21:22;;;;;;;;;23.80;23.80;;;;;;;;5038925;28;8933;-77
2023/06/01 09:23:51;;;;;;;;;24.00;24.00;;;;;;;;5049887;28;8844;-79
2023/06/01 09:26:19;;;;;;;;;25.00;24.80;;;;;;;;5050595;28;8847;-79
2023/06/01 09:28:57;;;;;;;;;21.20;20.80;;;;;;;;5050586;28;8844;-79
2023/06/01 09:31:37;;;;;;;;;25.00;24.60;;;;;;;;5048536;28;8811;-80
2023/06/01 09:34:11;;;;;;;;;23.60;23.60;;;;;;;;5041133;28;8860;-80
2023/06/01 09:36:38;;;;;;;;;24.80;23.40;;;;;;;;5049873;28;8942;-79
2023/06/01 09:39:06;;;;;;;;;20.40;20.00;;;;;;;;5049246;28;8848;-79
2023/06/01 09:41:47;;;;;;;;;19.20;17.60;;;;;;;;5049506;28;8990;-80
2023/06/01 09:44:14;;;;;;;;;18.00;14.00;;;;;;;;5049573;28;8850;-78
2023/06/01 09:46:48;;;;;;;;;21.60;20.60;;;;;;;;5049853;28;9011;-81
2023/06/01 09:49:22;;;;;;;;;26.40;22.00;;;;;;;;5048816;28;8844;-80
2023/06/01 09:51:49;;;;;;;;;21.40;20.60;;;;;;;;5039045;28;8856;-79
2023/06/01 09:54:25;;;;;;;;;17.00;15.00;;;;;;;;5049377;28;9602;-79
2023/06/01 09:56:52;;;;;;;;;22.40;20.00;;;;;;;;5050038;28;8869;-80
2023/06/01 09:59:21;;;;;;;;;22.40;21.80;;;;;;;;5050462;28;8962;-80
2023/06/01 10:01:51;;;;;;;;;22.20;20.60;;;;;;;;5050275;28;8815;-81
2023/06/01 10:04:23;;;;;;;;;16.60;16.60;;;;;;;;5050985;28;8825;-80
2023/06/01 10:06:54;;;;;;;;;21.40;21.40;;;;;;;;5052346;28;8844;-79
2023/06/01 10:09:24;;;;;;;;;23.80;21.60;;;;;;;;5050948;28;8879;-78
2023/06/01 10:11:53;;;;;;;;;21.20;21.20;;;;;;;;5051691;28;8864;-79
2023/06/01 10:14:21;;;;;;;;;15.20;15.20;;;;;;;;5048647;28;8816;-78
2023/06/01 10:16:50;;;;;;;;;23.60;21.40;;;;;;;;5062214;28;8842;-78
2023/06/01 10:19:17;;;;;;;;;18.60;18.60;;;;;;;;5047647;28;8843;-78
2023/06/01 10:21:46;;;;;;;;;18.80;18.00;;;;;;;;5046608;28;8950;-79
2023/06/01 10:24:14;;;;;;;;;24.20;24.20;;;;;;;;5040408;28;8840;-80
2023/06/01 10:27:04;;;;;;;;;18.00;18.00;;;;;;;;5048082;28;9215;-79
2023/06/01 10:29:32;;;;;;;;;18.20;18.20;;;;;;;;5037418;28;8829;-80
2023/06/01 10:31:59;;;;;;;;;18.40;18.40;;;;;;;;5046449;28;8789;-80
2023/06/01 10:34:40;;;;;;;;;15.60;15.60;;;;;;;;5048165;28;8841;-79
2023/06/01 10:37:16;;;;;;;;;19.00;17.40;;;;;;;;5036357;28;9869;-78
2023/06/01 10:39:44;;;;;;;;;21.00;19.40;;;;;;;;5054019;28;8840;-82
2023/06/01 10:42:45;;;;;;;;;20.40;18.80;;;;;;;;5047783;28;8844;-80
2023/06/01 10:45:37;;;;;;;;;16.60;16.00;;;;;;;;4961682;28;8905;-81
2023/06/01 10:48:06;;;;;;;;;19.60;19.40;;;;;;;;4961924;28;8871;-81
2023/06/01 10:50:36;;;;;;;;;20.00;20.00;;;;;;;;5010938;28;8852;-81
2023/06/01 10:53:28;;;;;;;;;16.40;15.20;;;;;;;;5042340;28;9610;-80
2023/06/01 10:56:23;;;;;;;;;21.20;19.80;;;;;;;;5047586;28;8848;-78
2023/06/01 10:59:11;;;;;;;;;14.80;14.80;;;;;;;;5047849;28;8871;-81
2023/06/01 11:01:40;;;;;;;;;19.80;17.20;;;;;;;;5047015;28;8788;-79
2023/06/01 11:04:08;;;;;;;;;17.60;17.60;;;;;;;;5046917;28;8859;-81
2023/06/01 11:06:38;;;;;;;;;20.00;17.40;;;;;;;;5047843;28;8863;-80
2023/06/01 11:09:08;;;;;;;;;18.00;15.20;;;;;;;;5048166;28;8844;-80
2023/06/01 11:12:04;;;;;;;;;17.20;16.60;;;;;;;;5047579;28;8874;-80
2023/06/01 11:14:33;;;;;;;;;19.20;19.20;;;;;;;;5034123;28;8844;-79
2023/06/01 11:17:26;;;;;;;;;19.20;19.20;;;;;;;;5047833;28;9685;-80
2023/06/01 11:20:00;;;;;;;;;19.80;19.80;;;;;;;;5046330;28;8856;-82
2023/06/01 11:22:34;;;;;;;;;20.80;20.80;;;;;;;;5046285;28;8865;-78
2023/06/01 11:25:07;;;;;;;;;21.60;21.60;;;;;;;;5047806;28;8860;-80
2023/06/01 11:27:35;;;;;;;;;21.20;18.20;;;;;;;;5048224;28;8863;-80
2023/06/01 11:30:03;;;;;;;;;23.40;22.00;;;;;;;;5046505;28;8902;-80
2023/06/01 11:32:36;;;;;;;;;17.40;17.40;;;;;;;;5046492;28;9777;-79
2023/06/01 11:35:18;;;;;;;;;16.60;16.60;;;;;;;;5058684;28;8967;-80
2023/06/01 11:37:47;;;;;;;;;16.00;16.00;;;;;;;;5047521;28;8876;-79
2023/06/01 11:40:16;;;;;;;;;14.20;14.20;;;;;;;;5047617;28;8921;-79
2023/06/01 11:42:43;;;;;;;;;21.20;19.80;;;;;;;;5047793;28;8911;-79
2023/06/01 11:45:16;;;;;;;;;19.60;16.20;;;;;;;;5046408;28;8995;-81
2023/06/01 11:47:45;;;;;;;;;18.00;17.40;;;;;;;;5049847;28;8872;-79
2023/06/01 11:50:23;;;;;;;;;16.60;14.80;;;;;;;;5051449;28;8852;-80
2023/06/01 11:52:52;;;;;;;;;13.20;12.60;;;;;;;;5052030;28;8880;-80
2023/06/01 11:55:21;;;;;;;;;16.60;15.00;;;;;;;;5065867;28;8870;-80
2023/06/01 11:57:48;;;;;;;;;17.80;17.80;;;;;;;;5065440;28;9006;-81
2023/06/01 12:00:16;;;;;;;;;18.00;15.60;;;;;;;;5040688;28;8838;-80
2023/06/01 12:02:45;;;;;;;;;10.60;9.20;;;;;;;;5054925;28;8933;-81
2023/06/01 12:05:13;;;;;;;;;11.60;10.00;;;;;;;;5039672;28;8836;-80
2023/06/01 12:07:47;;;;;;;;;17.40;15.60;;;;;;;;5051328;28;8840;-81
2023/06/01 12:10:16;;;;;;;;;16.80;15.00;;;;;;;;5068619;28;9621;-80
2023/06/01 12:12:46;;;;;;;;;13.20;13.20;;;;;;;;5064169;28;8890;-80
2023/06/01 12:15:15;;;;;;;;;18.80;16.00;;;;;;;;5060569;28;8866;-81
2023/06/01 12:17:49;;;;;;;;;11.40;11.40;;;;;;;;5054852;28;8830;-80
2023/06/01 12:20:30;;;;;;;;;12.60;12.20;;;;;;;;5057025;28;8853;-81
2023/06/01 12:22:57;;;;;;;;;12.60;12.60;;;;;;;;5067486;28;8854;-81
2023/06/01 12:25:26;;;;;;;;;15.60;15.60;;;;;;;;5065910;28;8850;-80
2023/06/01 12:28:08;;;;;;;;;13.80;13.00;;;;;;;;5046929;28;8845;-79
2023/06/01 12:30:36;;;;;;;;;14.40;13.00;;;;;;;;5064740;28;9605;-80
2023/06/01 12:33:05;;;;;;;;;13.80;12.40;;;;;;;;5053455;28;8896;-81
2023/06/01 12:35:33;;;;;;;;;13.00;13.00;;;;;;;;5049746;28;8856;-80
2023/06/01 12:38:08;;;;;;;;;11.00;11.00;;;;;;;;5049699;28;8860;-80
2023/06/01 12:40:36;;;;;;;;;11.40;11.40;;;;;;;;5050526;28;8852;-81
2023/06/01 12:43:18;;;;;;;;;14.60;14.60;;;;;;;;5050694;28;8840;-81
2023/06/01 12:45:46;;;;;;;;;16.20;16.20;;;;;;;;5051129;28;8855;-81
2023/06/01 12:48:30;;;;;;;;;14.00;14.00;;;;;;;;5051077;28;9497;-80
2023/06/01 12:50:58;;;;;;;;;11.20;11.20;;;;;;;;5050719;28;8840;-81
2023/06/01 12:53:26;;;;;;;;;16.60;15.60;;;;;;;;5050153;28;8905;-81
2023/06/01 12:55:53;;;;;;;;;14.20;14.20;;;;;;;;5051131;28;8902;-81
2023/06/01 12:58:24;;;;;;;;;14.80;13.20;;;;;;;;5050099;28;8917;-81
2023/06/01 13:00:51;;;;;;;;;3.00;3.00;;;;;;;;5049861;28;8855;-81
2023/06/01 13:03:20;;;;;;;;;14.60;14.40;;;;;;;;5050624;28;8981;-81
2023/06/01 13:05:49;;;;;;;;;14.40;14.00;;;;;;;;5050536;28;8856;-81
2023/06/01 13:08:16;;;;;;;;;11.40;9.00;;;;;;;;5049823;28;8848;-81
2023/06/01 13:10:45;;;;;;;;;15.40;14.00;;;;;;;;5050340;28;9440;-82
2023/06/01 13:13:12;;;;;;;;;14.80;12.80;;;;;;;;5051075;28;8849;-81
2023/06/01 13:15:42;;;;;;;;;12.80;12.80;;;;;;;;5051257;28;8990;-81
2023/06/01 13:18:09;;;;;;;;;13.00;11.20;;;;;;;;5049948;28;8848;-79
2023/06/01 13:20:39;;;;;;;;;14.00;12.20;;;;;;;;5037757;28;8852;-81
2023/06/01 13:23:06;;;;;;;;;10.80;9.20;;;;;;;;5052339;28;8851;-81
2023/06/01 13:25:34;;;;;;;;;13.60;12.60;;;;;;;;5051721;28;8887;-80
2023/06/01 13:28:01;;;;;;;;;15.60;12.60;;;;;;;;5051732;28;8867;-80
2023/06/01 13:30:29;;;;;;;;;11.80;11.80;;;;;;;;5040891;28;9312;-80
2023/06/01 13:33:01;;;;;;;;;14.80;11.40;;;;;;;;5038514;28;8849;-80
2023/06/01 13:35:34;;;;;;;;;12.20;11.20;;;;;;;;5056230;28;8865;-80
2023/06/01 13:38:03;;;;;;;;;13.00;13.00;;;;;;;;5064809;28;8849;-81
2023/06/01 13:40:30;;;;;;;;;11.40;10.20;;;;;;;;5054620;28;8848;-81
2023/06/01 13:43:00;;;;;;;;;12.80;12.00;;;;;;;;5048403;28;8867;-80
2023/06/01 13:45:28;;;;;;;;;9.80;9.80;;;;;;;;5052000;28;8850;-80
2023/06/01 13:47:58;;;;;;;;;12.80;12.00;;;;;;;;5051726;28;9038;-80
2023/06/01 13:50:25;;;;;;;;;12.80;9.60;;;;;;;;5054419;28;8990;-80
2023/06/01 13:52:55;;;;;;;;;14.00;13.80;;;;;;;;5054034;28;8840;-80
2023/06/01 13:55:22;;;;;;;;;12.00;10.40;;;;;;;;5048132;28;8832;-80
2023/06/01 13:57:50;;;;;;;;;12.40;11.00;;;;;;;;5049113;28;8880;-79
2023/06/01 14:00:18;;;;;;;;;12.40;12.00;;;;;;;;5048960;28;8846;-78
2023/06/01 14:02:45;;;;;;;;;12.00;12.00;;;;;;;;5050883;28;8872;-82
2023/06/01 14:05:15;;;;;;;;;14.20;12.60;;;;;;;;5050936;28;8990;-79
2023/06/01 14:07:45;;;;;;;;;8.40;8.00;;;;;;;;5060907;28;8952;-80
2023/06/01 14:10:14;;;;;;;;;12.80;11.40;;;;;;;;5049436;28;8844;-77
2023/06/01 14:12:41;;;;;;;;;14.60;11.80;;;;;;;;5053997;28;8828;-76
2023/06/01 14:15:09;;;;;;;;;12.00;12.00;;;;;;;;5055137;28;9632;-76
2023/06/01 14:17:37;;;;;;;;;12.00;12.00;;;;;;;;5053042;28;8870;-78
2023/06/01 14:20:05;;;;;;;;;13.40;11.80;;;;;;;;5053646;28;8828;-77
2023/06/01 14:22:34;;;;;;;;;11.80;11.20;;;;;;;;5048902;28;9654;-78
2023/06/01 14:25:02;;;;;;;;;14.00;11.40;;;;;;;;5052139;28;8998;-78
2023/06/01 14:27:29;;;;;;;;;10.80;10.00;;;;;;;;5057061;28;8852;-77
2023/06/01 14:29:56;;;;;;;;;10.60;10.60;;;;;;;;5056081;28;8953;-78
2023/06/01 14:32:24;;;;;;;;;10.00;9.40;;;;;;;;5050763;28;8801;-84
2023/06/01 14:34:51;;;;;;;;;8.60;7.80;;;;;;;;5051651;28;8830;-79
2023/06/01 14:37:18;;;;;;;;;12.80;12.80;;;;;;;;5050257;28;8890;-78
2023/06/01 14:39:47;;;;;;;;;9.60;9.60;;;;;;;;5058999;28;8873;-81
2023/06/01 14:42:14;;;;;;;;;10.20;10.20;;;;;;;;5054184;28;8882;-82
2023/06/01 14:44:42;;;;;;;;;12.00;11.00;;;;;;;;5061978;28;8830;-80
2023/06/01 14:47:11;;;;;;;;;13.60;12.40;;;;;;;;5051341;28;8918;-81